EPZG/IEG METAR and TAF weather

Enter ICAO airport designator
Station Type Date Time Source
EPZG METAR 2019/08/22 16:00 UTC NOAA

EPZG 221600Z 08005KT 050V110 CAVOK 23/11 Q1027


Station Type Date Time Source
EPZG Decoded METAR 2019/08/22 16:00 UTC NOAA

Station name not available
Aug 22, 2019 - 12:00 PM EDT / 2019.08.22 1600 UTC
Wind: from the E (080 degrees) at 6 MPH (5 KT) (direction variable):0
Visibility: greater than 7 mile(s):0
Temperature: 73 F (23 C)
Dew Point: 51 F (11 C)
Relative Humidity: 46%
Pressure (altimeter): 30.33 in. Hg (1027 hPa)
ob: EPZG 221600Z 08005KT 050V110 CAVOK 23/11 Q1027
cycle: 16

Station Type Date Time Source
EPZG TAF 2012/06/28 21:49 UTC NOAA

TAF EPZG 282000Z 2821/2906 VRB02KT CAVOK
TEMPO 2823/2904 5000 BR PROB30 2900/2904 1500 BR BKN005

Example: see airport list